createdAt,value
2023-01-09T00:01:27.560Z,99797.53
2023-01-09T00:03:55.636Z,99798.94
2023-01-09T00:06:23.709Z,99801.78
2023-01-09T00:08:51.673Z,99793.25
2023-01-09T00:11:19.986Z,99800.59
2023-01-09T00:13:48.096Z,99789.63
2023-01-09T00:16:16.616Z,99792.53
2023-01-09T00:18:46.151Z,99793.31
2023-01-09T00:21:14.894Z,99790.78
2023-01-09T00:23:42.988Z,99785.00
2023-01-09T00:26:12.868Z,99788.38
2023-01-09T00:28:41.615Z,99782.72
2023-01-09T00:31:10.400Z,99782.97
2023-01-09T00:33:42.399Z,99772.91
2023-01-09T00:36:12.283Z,99772.59
2023-01-09T00:38:41.112Z,99767.66
2023-01-09T00:41:12.902Z,99763.84
2023-01-09T00:43:45.173Z,99753.72
2023-01-09T00:46:14.300Z,99756.47
2023-01-09T00:48:45.459Z,99759.38
2023-01-09T00:51:15.678Z,99754.50
2023-01-09T00:53:44.603Z,99751.91
2023-01-09T00:56:16.115Z,99746.47
2023-01-09T00:58:44.445Z,99735.69
2023-01-09T01:01:13.243Z,99737.75
2023-01-09T01:03:41.263Z,99732.84
2023-01-09T01:06:26.848Z,99728.72
2023-01-09T01:08:56.833Z,99729.88
2023-01-09T01:11:25.254Z,99730.13
2023-01-09T01:13:53.296Z,99733.53
2023-01-09T01:16:21.268Z,99734.44
2023-01-09T01:18:49.213Z,99731.63
2023-01-09T01:21:17.861Z,99731.25
2023-01-09T01:23:45.751Z,99726.19
2023-01-09T01:26:17.599Z,99728.16
2023-01-09T01:28:45.459Z,99725.47
2023-01-09T01:31:18.461Z,99716.50
2023-01-09T01:33:46.420Z,99719.03
2023-01-09T01:36:16.213Z,99729.22
2023-01-09T01:38:44.598Z,99731.50
2023-01-09T01:41:13.841Z,99726.56
2023-01-09T01:43:52.509Z,99718.69
2023-01-09T01:46:20.529Z,99714.44
2023-01-09T01:48:51.539Z,99716.13
2023-01-09T01:51:21.774Z,99708.69
2023-01-09T01:53:53.793Z,99697.97
2023-01-09T01:56:26.251Z,99690.81
2023-01-09T01:58:58.721Z,99694.00
2023-01-09T02:01:27.514Z,99681.16
2023-01-09T02:03:58.370Z,99686.09
2023-01-09T02:06:27.068Z,99685.47
2023-01-09T02:08:55.000Z,99684.28
2023-01-09T02:11:24.254Z,99676.69
2023-01-09T02:13:53.366Z,99678.38
2023-01-09T02:16:35.748Z,99686.25
2023-01-09T02:19:17.083Z,99688.25
2023-01-09T02:21:58.738Z,99684.63
2023-01-09T02:24:55.800Z,99690.97
2023-01-09T02:27:49.753Z,99685.53
2023-01-09T02:30:31.501Z,99686.53
2023-01-09T02:33:19.997Z,99687.81
2023-01-09T02:36:07.320Z,99686.59
2023-01-09T02:38:42.291Z,99690.59
2023-01-09T02:41:17.215Z,99691.22
2023-01-09T02:43:45.100Z,99680.97
2023-01-09T02:46:20.552Z,99691.03
2023-01-09T02:48:52.417Z,99685.06
2023-01-09T02:51:25.555Z,99686.03
2023-01-09T02:54:05.498Z,99680.41
2023-01-09T02:56:57.020Z,99685.50
2023-01-09T02:59:33.939Z,99679.69
2023-01-09T03:02:23.933Z,99675.03
2023-01-09T03:05:02.242Z,99674.13
2023-01-09T03:07:35.760Z,99677.53
2023-01-09T03:10:11.139Z,99675.00
2023-01-09T03:12:40.909Z,99666.44
2023-01-09T03:15:13.370Z,99673.69
2023-01-09T03:17:46.763Z,99668.03
2023-01-09T03:20:19.909Z,99666.03
2023-01-09T03:22:55.267Z,99656.84
2023-01-09T03:25:23.466Z,99657.44
2023-01-09T03:27:56.308Z,99655.91
2023-01-09T03:30:25.251Z,99652.56
2023-01-09T03:32:54.505Z,99639.31
2023-01-09T03:35:22.433Z,99641.25
2023-01-09T03:37:51.743Z,99642.53
2023-01-09T03:40:19.894Z,99630.72
2023-01-09T03:42:48.423Z,99625.66
2023-01-09T03:45:16.509Z,99618.03
2023-01-09T03:47:44.493Z,99619.56
2023-01-09T03:50:13.852Z,99611.72
2023-01-09T03:52:41.790Z,99607.75
2023-01-09T03:55:10.289Z,99607.50
2023-01-09T03:57:38.232Z,99604.16
2023-01-09T04:00:08.510Z,99609.19
2023-01-09T04:02:39.941Z,99611.25
2023-01-09T04:05:09.226Z,99608.06
2023-01-09T04:07:38.792Z,99608.41
2023-01-09T04:10:07.776Z,99603.84
2023-01-09T04:12:35.763Z,99604.03
2023-01-09T04:15:03.603Z,99597.81
2023-01-09T04:17:31.478Z,99599.31
2023-01-09T04:19:59.680Z,99587.78
2023-01-09T04:22:27.555Z,99585.09
2023-01-09T04:24:56.870Z,99590.97
2023-01-09T04:27:24.782Z,99588.13
2023-01-09T04:29:52.682Z,99582.66
2023-01-09T04:32:20.900Z,99593.72
2023-01-09T04:34:48.831Z,99589.47
2023-01-09T04:37:16.737Z,99583.22
2023-01-09T04:39:44.567Z,99581.47
2023-01-09T04:42:13.860Z,99575.94
2023-01-09T04:44:41.796Z,99567.78
2023-01-09T04:47:09.912Z,99560.09
2023-01-09T04:49:37.808Z,99569.75
2023-01-09T04:52:06.155Z,99576.94
2023-01-09T04:54:34.382Z,99568.72
2023-01-09T04:57:02.278Z,99578.50
2023-01-09T04:59:31.809Z,99578.69
2023-01-09T05:02:00.038Z,99571.72
2023-01-09T05:04:28.304Z,99575.09
2023-01-09T05:06:56.303Z,99571.94
2023-01-09T05:09:24.225Z,99569.31
2023-01-09T05:11:52.180Z,99570.31
2023-01-09T05:14:20.291Z,99559.84
2023-01-09T05:16:49.620Z,99551.22
2023-01-09T05:19:17.544Z,99555.91
2023-01-09T05:21:45.452Z,99557.19
2023-01-09T05:24:13.341Z,99553.94
2023-01-09T05:26:41.218Z,99549.31
2023-01-09T05:29:09.166Z,99552.44
2023-01-09T05:31:37.054Z,99550.41
2023-01-09T05:34:06.331Z,99560.59
2023-01-09T05:36:34.368Z,99556.59
2023-01-09T05:39:02.773Z,99553.72
2023-01-09T05:41:30.714Z,99547.59
2023-01-09T05:43:58.567Z,99553.44
2023-01-09T05:46:26.450Z,99544.50
2023-01-09T05:48:54.347Z,99551.31
2023-01-09T05:51:23.574Z,99545.13
2023-01-09T05:53:51.560Z,99538.59
2023-01-09T05:56:19.420Z,99536.41
2023-01-09T05:58:47.358Z,99540.03
2023-01-09T06:01:15.326Z,99541.34
2023-01-09T06:03:43.441Z,99541.22
2023-01-09T06:06:11.353Z,99532.22
2023-01-09T06:08:40.628Z,99538.78
2023-01-09T06:11:08.528Z,99536.47
2023-01-09T06:13:36.513Z,99531.88
2023-01-09T06:16:04.691Z,99537.28
2023-01-09T06:18:32.595Z,99531.13
2023-01-09T06:21:00.438Z,99535.66
2023-01-09T06:23:28.336Z,99532.25
2023-01-09T06:25:57.573Z,99532.16
2023-01-09T06:28:25.550Z,99523.38
2023-01-09T06:30:53.569Z,99524.47
2023-01-09T06:33:21.684Z,99521.41
2023-01-09T06:35:49.611Z,99525.56
2023-01-09T06:38:17.495Z,99525.47
2023-01-09T06:40:45.391Z,99521.50
2023-01-09T06:43:14.648Z,99519.81
2023-01-09T06:45:43.545Z,99514.69
2023-01-09T06:48:11.603Z,99513.53
2023-01-09T06:50:39.764Z,99518.28
2023-01-09T06:53:07.760Z,99512.34
2023-01-09T06:55:35.731Z,99514.41
2023-01-09T06:58:03.581Z,99512.66
2023-01-09T07:00:32.885Z,99504.59
2023-01-09T07:03:00.764Z,99508.84
2023-01-09T07:05:28.622Z,99495.31
2023-01-09T07:07:57.084Z,99501.25
2023-01-09T07:10:25.166Z,99503.22
2023-01-09T07:12:53.050Z,99497.38
2023-01-09T07:15:20.955Z,99498.53
2023-01-09T07:17:51.961Z,99500.41
2023-01-09T07:20:21.241Z,99492.44
2023-01-09T07:22:49.169Z,99494.47
2023-01-09T07:25:17.243Z,99499.03
2023-01-09T07:27:45.319Z,99500.13
2023-01-09T07:30:14.521Z,99492.72
2023-01-09T07:32:42.618Z,99500.59
2023-01-09T07:35:12.190Z,99494.00
2023-01-09T07:37:40.110Z,99502.66
2023-01-09T07:40:09.510Z,99503.66
2023-01-09T07:42:37.429Z,99508.44
2023-01-09T07:45:06.150Z,99506.31
2023-01-09T07:47:34.066Z,99498.63
2023-01-09T07:50:01.916Z,99507.78
2023-01-09T07:52:31.157Z,99504.41
2023-01-09T07:54:59.014Z,99500.25
2023-01-09T07:57:26.904Z,99517.78
2023-01-09T07:59:54.753Z,99512.22
2023-01-09T08:02:22.829Z,99514.13
2023-01-09T08:04:50.812Z,99520.97
2023-01-09T08:07:18.722Z,99528.75
2023-01-09T08:09:47.941Z,99527.50
2023-01-09T08:12:16.003Z,99536.06
2023-01-09T08:14:43.876Z,99523.72
2023-01-09T08:17:11.799Z,99527.50
2023-01-09T08:19:40.168Z,99522.47
2023-01-09T08:22:08.075Z,99519.94
2023-01-09T08:24:36.683Z,99522.88
2023-01-09T08:27:05.954Z,99521.91
2023-01-09T08:29:33.893Z,99522.06
2023-01-09T08:32:01.809Z,99518.41
2023-01-09T08:34:30.502Z,99523.47
2023-01-09T08:36:59.344Z,99530.34
2023-01-09T08:39:27.206Z,99523.63
2023-01-09T08:42:27.170Z,99526.25
2023-01-09T08:45:13.882Z,99530.78
2023-01-09T08:47:41.829Z,99532.88
2023-01-09T08:50:10.722Z,99542.69
2023-01-09T08:52:38.660Z,99548.03
2023-01-09T08:55:07.230Z,99546.34
2023-01-09T08:57:35.078Z,99550.00
2023-01-09T09:00:05.190Z,99548.06
2023-01-09T09:02:33.157Z,99560.38
2023-01-09T09:05:01.053Z,99561.22
2023-01-09T09:07:28.920Z,99553.09
2023-01-09T09:09:56.955Z,99556.75
2023-01-09T09:12:24.878Z,99549.16
2023-01-09T09:15:10.408Z,99551.09
2023-01-09T09:17:40.275Z,99552.50
2023-01-09T09:20:10.530Z,99553.69
2023-01-09T09:22:38.671Z,99550.16
2023-01-09T09:25:07.671Z,99559.53
2023-01-09T09:27:36.576Z,99567.13
2023-01-09T09:30:04.934Z,99561.53
2023-01-09T09:32:33.363Z,99575.28
2023-01-09T09:35:02.685Z,99577.13
2023-01-09T09:37:30.634Z,99576.41
2023-01-09T09:40:01.435Z,99572.03
2023-01-09T09:43:06.377Z,99575.81
2023-01-09T09:45:46.238Z,99567.69
2023-01-09T09:48:29.197Z,99575.53
2023-01-09T09:51:36.884Z,99573.19
2023-01-09T09:54:13.842Z,99577.25
2023-01-09T09:56:49.286Z,99587.66
2023-01-09T09:59:20.013Z,99589.28
2023-01-09T10:01:54.051Z,99589.03
2023-01-09T10:04:25.061Z,99581.44
2023-01-09T10:06:58.282Z,99593.22
2023-01-09T10:09:42.413Z,99589.56
2023-01-09T10:12:24.464Z,99591.50
2023-01-09T10:14:52.479Z,99592.34
2023-01-09T10:17:32.325Z,99580.16
2023-01-09T10:20:32.733Z,99580.38
2023-01-09T10:23:08.966Z,99589.00
2023-01-09T10:25:45.331Z,99592.53
2023-01-09T10:28:32.808Z,99603.56
2023-01-09T10:31:06.310Z,99597.25
2023-01-09T10:33:51.378Z,99608.53
2023-01-09T10:36:36.499Z,99611.72
2023-01-09T10:39:09.832Z,99607.88
2023-01-09T10:41:42.678Z,99610.28
2023-01-09T10:44:21.263Z,99603.59
2023-01-09T10:46:54.414Z,99608.69
2023-01-09T10:49:23.922Z,99612.06
2023-01-09T10:51:53.702Z,99615.19
2023-01-09T10:54:23.821Z,99618.09
2023-01-09T10:56:56.686Z,99624.28
2023-01-09T10:59:24.975Z,99623.34
2023-01-09T11:01:53.046Z,99624.72
2023-01-09T11:04:25.981Z,99627.44
2023-01-09T11:07:00.164Z,99635.28
2023-01-09T11:09:28.074Z,99631.88
2023-01-09T11:11:57.349Z,99633.38
2023-01-09T11:14:31.323Z,99641.69
2023-01-09T11:17:01.334Z,99643.56
2023-01-09T11:19:31.131Z,99646.84
2023-01-09T11:22:09.234Z,99647.06
2023-01-09T11:24:37.155Z,99651.13
2023-01-09T11:27:23.711Z,99653.19
2023-01-09T11:30:22.466Z,99657.34
2023-01-09T11:32:50.725Z,99666.50
2023-01-09T11:35:28.905Z,99665.44
2023-01-09T11:38:06.084Z,99672.81
2023-01-09T11:40:45.155Z,99680.56
2023-01-09T11:43:19.257Z,99665.25
2023-01-09T11:46:00.557Z,99675.84
2023-01-09T11:48:42.047Z,99677.66
2023-01-09T11:51:19.966Z,99668.13
2023-01-09T11:54:12.083Z,99664.03
2023-01-09T11:56:41.684Z,99664.03
2023-01-09T11:59:13.586Z,99665.78
2023-01-09T12:02:02.905Z,99669.25
2023-01-09T12:04:36.351Z,99679.53
2023-01-09T12:07:16.087Z,99678.66
2023-01-09T12:09:52.880Z,99693.06
2023-01-09T12:12:29.723Z,99678.88
2023-01-09T12:15:16.890Z,99696.06
2023-01-09T12:18:04.867Z,99707.34
2023-01-09T12:20:50.638Z,99699.47
2023-01-09T12:23:33.657Z,99709.25
2023-01-09T12:26:15.059Z,99707.56
2023-01-09T12:29:25.481Z,99693.66
2023-01-09T12:32:16.590Z,99688.91
2023-01-09T12:34:59.189Z,99693.41
2023-01-09T12:37:45.846Z,99699.41
2023-01-09T12:40:27.920Z,99694.03
2023-01-09T12:43:08.242Z,99695.31
2023-01-09T12:45:53.798Z,99698.19
2023-01-09T12:48:37.752Z,99694.19
2023-01-09T12:51:29.189Z,99698.69
2023-01-09T12:54:03.264Z,99694.41
2023-01-09T12:56:35.551Z,99708.63
2023-01-09T12:59:13.245Z,99702.34
2023-01-09T13:01:46.559Z,99705.88
2023-01-09T13:04:18.237Z,99717.47
2023-01-09T13:06:51.097Z,99704.88
2023-01-09T13:09:26.017Z,99704.88
2023-01-09T13:12:04.096Z,99714.31
2023-01-09T13:14:50.913Z,99718.34
2023-01-09T13:17:24.979Z,99718.47
2023-01-09T13:19:54.380Z,99714.78
2023-01-09T13:22:26.697Z,99709.94
2023-01-09T13:25:19.844Z,99708.94
2023-01-09T13:27:53.567Z,99713.19
2023-01-09T13:30:40.693Z,99713.38
2023-01-09T13:33:19.325Z,99704.81
2023-01-09T13:35:57.463Z,99705.09
2023-01-09T13:38:27.210Z,99712.34
2023-01-09T13:41:30.919Z,99710.56
2023-01-09T13:44:01.609Z,99720.34
2023-01-09T13:46:37.406Z,99709.09
2023-01-09T13:49:05.739Z,99710.94
2023-01-09T13:51:58.914Z,99717.69
2023-01-09T13:55:23.669Z,99726.13
2023-01-09T13:58:15.032Z,99733.88
2023-01-09T14:00:57.521Z,99745.50
2023-01-09T14:03:31.336Z,99752.91
2023-01-09T14:06:16.223Z,99756.53
2023-01-09T14:08:47.908Z,99768.47
2023-01-09T14:11:25.889Z,99770.75
2023-01-09T14:14:04.482Z,99772.81
2023-01-09T14:16:33.209Z,99774.31
2023-01-09T14:19:06.792Z,99784.75
2023-01-09T14:21:47.727Z,99783.63
2023-01-09T14:24:23.929Z,99795.44
2023-01-09T14:26:56.583Z,99795.44
2023-01-09T14:29:48.584Z,99800.91
2023-01-09T14:32:41.979Z,99803.00
2023-01-09T14:35:29.995Z,99798.56
2023-01-09T14:38:05.994Z,99796.00
2023-01-09T14:40:37.014Z,99803.22
2023-01-09T14:43:20.364Z,99805.59
2023-01-09T14:45:50.222Z,99820.53
2023-01-09T14:48:19.286Z,99816.91
2023-01-09T14:50:51.248Z,99822.72
2023-01-09T14:53:23.228Z,99833.78
2023-01-09T14:55:54.702Z,99837.28
2023-01-09T14:58:25.133Z,99827.66
2023-01-09T15:00:58.559Z,99834.13
2023-01-09T15:03:29.471Z,99830.63
2023-01-09T15:05:57.670Z,99837.59
2023-01-09T15:08:28.858Z,99833.78
2023-01-09T15:11:00.355Z,99833.19
2023-01-09T15:13:32.610Z,99838.59
2023-01-09T15:16:01.802Z,99842.06
2023-01-09T15:18:32.969Z,99839.72
2023-01-09T15:21:03.601Z,99856.56
2023-01-09T15:23:32.179Z,99861.22
2023-01-09T15:26:14.641Z,99857.81
2023-01-09T15:28:44.198Z,99865.31
2023-01-09T15:31:16.710Z,99869.34
2023-01-09T15:33:47.424Z,99870.66
2023-01-09T15:36:19.810Z,99875.88
2023-01-09T15:38:49.152Z,99870.69
2023-01-09T15:41:34.904Z,99874.63
2023-01-09T15:44:04.907Z,99874.94
2023-01-09T15:46:33.476Z,99872.38
2023-01-09T15:49:03.808Z,99876.63
2023-01-09T15:51:36.026Z,99870.41
2023-01-09T15:54:07.889Z,99873.47
2023-01-09T15:56:39.317Z,99889.69
2023-01-09T15:59:24.735Z,99891.06
2023-01-09T16:02:20.892Z,99893.50
2023-01-09T16:04:49.772Z,99904.91
2023-01-09T16:07:20.953Z,99899.41
2023-01-09T16:09:52.688Z,99899.88
2023-01-09T16:12:24.749Z,99903.66
2023-01-09T16:14:55.837Z,99906.19
2023-01-09T16:17:26.696Z,99915.22
2023-01-09T16:19:57.798Z,99920.56
2023-01-09T16:22:27.745Z,99918.81
2023-01-09T16:25:00.248Z,99922.50
2023-01-09T16:27:32.108Z,99920.81
2023-01-09T16:30:03.966Z,99917.44
2023-01-09T16:32:34.083Z,99918.03
2023-01-09T16:35:06.334Z,99908.44
2023-01-09T16:37:36.013Z,99923.91
2023-01-09T16:40:29.034Z,99921.50
2023-01-09T16:43:03.561Z,99922.50
2023-01-09T16:45:37.087Z,99930.94
2023-01-09T16:48:12.982Z,99927.56
2023-01-09T16:50:41.316Z,99930.63
2023-01-09T16:53:16.045Z,99934.00
2023-01-09T16:55:44.400Z,99953.56
2023-01-09T16:58:18.465Z,99947.75
2023-01-09T17:00:47.905Z,99951.59
2023-01-09T17:03:16.539Z,99958.72
2023-01-09T17:05:45.144Z,99954.38
2023-01-09T17:08:21.642Z,99952.59
2023-01-09T17:10:49.649Z,99942.16
2023-01-09T17:13:18.915Z,99942.56
2023-01-09T17:15:47.236Z,99945.69
2023-01-09T17:18:17.647Z,99944.38
2023-01-09T17:20:47.472Z,99945.09
2023-01-09T17:23:15.916Z,99942.44
2023-01-09T17:26:02.019Z,99954.00
2023-01-09T17:28:33.988Z,99951.19
2023-01-09T17:31:03.284Z,99953.56
2023-01-09T17:33:31.257Z,99953.25
2023-01-09T17:35:59.771Z,99952.97
2023-01-09T17:38:27.647Z,99955.78
2023-01-09T17:40:56.488Z,99948.59
2023-01-09T17:43:24.541Z,99949.53
2023-01-09T17:45:53.900Z,99952.00
2023-01-09T17:48:23.261Z,99955.53
2023-01-09T17:50:51.165Z,99958.09
2023-01-09T17:53:20.714Z,99959.59
2023-01-09T17:55:48.660Z,99964.75
2023-01-09T17:58:26.803Z,99973.88
2023-01-09T18:00:56.126Z,99984.88
2023-01-09T18:03:25.924Z,99981.38
2023-01-09T18:05:54.255Z,99980.41
2023-01-09T18:08:22.112Z,99988.84
2023-01-09T18:10:50.082Z,99994.88
2023-01-09T18:13:18.218Z,99986.69
2023-01-09T18:15:47.181Z,99990.38
2023-01-09T18:18:17.200Z,99991.22
2023-01-09T18:20:46.431Z,99994.75
2023-01-09T18:23:14.752Z,99995.03
2023-01-09T18:25:43.929Z,100009.31
2023-01-09T18:28:15.140Z,100005.72
2023-01-09T18:30:45.510Z,100006.31
2023-01-09T18:33:14.027Z,100006.41
2023-01-09T18:35:44.082Z,100011.38
2023-01-09T18:38:13.684Z,100022.19
2023-01-09T18:40:41.794Z,100024.00
2023-01-09T18:43:11.525Z,100018.28
2023-01-09T18:45:39.938Z,100022.38
2023-01-09T18:48:09.549Z,100024.47
2023-01-09T18:50:37.487Z,100028.94
2023-01-09T18:53:07.394Z,100042.56
2023-01-09T18:55:37.698Z,100044.41
2023-01-09T18:58:06.249Z,100051.03
2023-01-09T19:00:34.490Z,100050.13
2023-01-09T19:03:02.374Z,100059.66
2023-01-09T19:05:30.281Z,100057.69
2023-01-09T19:07:58.188Z,100064.56
2023-01-09T19:10:27.619Z,100063.63
2023-01-09T19:12:55.486Z,100062.34
2023-01-09T19:15:23.370Z,100068.47
2023-01-09T19:17:51.729Z,100065.78
2023-01-09T19:20:20.126Z,100072.41
2023-01-09T19:22:48.010Z,100077.06
2023-01-09T19:25:15.973Z,100070.22
2023-01-09T19:27:45.261Z,100071.16
2023-01-09T19:30:14.588Z,100062.94
2023-01-09T19:32:42.416Z,100074.78
2023-01-09T19:35:10.626Z,100072.81
2023-01-09T19:37:38.507Z,100084.22
2023-01-09T19:40:07.570Z,100085.75
2023-01-09T19:42:35.441Z,100088.25
2023-01-09T19:45:05.484Z,100091.44
2023-01-09T19:47:35.556Z,100088.81
2023-01-09T19:50:05.152Z,100090.63
2023-01-09T19:52:33.234Z,100084.16
2023-01-09T19:55:01.328Z,100091.00
2023-01-09T19:57:29.245Z,100090.00
2023-01-09T19:59:58.074Z,100096.44
2023-01-09T20:02:28.058Z,100101.78
2023-01-09T20:04:56.300Z,100107.22
2023-01-09T20:07:24.234Z,100116.91
2023-01-09T20:09:52.119Z,100113.03
2023-01-09T20:12:19.968Z,100105.53
2023-01-09T20:14:48.211Z,100107.63
2023-01-09T20:17:17.849Z,100114.06
2023-01-09T20:19:47.111Z,100112.72
2023-01-09T20:22:15.286Z,100115.50
2023-01-09T20:24:43.225Z,100118.19
2023-01-09T20:27:11.259Z,100119.28
2023-01-09T20:29:39.155Z,100121.81
2023-01-09T20:32:07.775Z,100124.81
2023-01-09T20:34:35.705Z,100119.41
2023-01-09T20:37:05.055Z,100131.53
2023-01-09T20:39:33.002Z,100138.22
2023-01-09T20:42:01.018Z,100144.19
2023-01-09T20:44:28.904Z,100143.38
2023-01-09T20:46:56.803Z,100155.28
2023-01-09T20:49:24.822Z,100157.91
2023-01-09T20:51:53.931Z,100159.06
2023-01-09T20:54:23.867Z,100154.56
2023-01-09T20:56:51.845Z,100160.53
2023-01-09T20:59:21.975Z,100162.78
2023-01-09T21:01:50.087Z,100174.47
2023-01-09T21:04:18.889Z,100174.31
2023-01-09T21:06:49.656Z,100180.66
2023-01-09T21:09:18.073Z,100187.41
2023-01-09T21:11:47.324Z,100186.13
2023-01-09T21:14:15.262Z,100187.13
2023-01-09T21:16:51.318Z,100184.94
2023-01-09T21:19:21.693Z,100190.34
2023-01-09T21:21:52.250Z,100188.25
2023-01-09T21:24:20.972Z,100199.97
2023-01-09T21:26:50.200Z,100201.03
2023-01-09T21:29:18.081Z,100203.59
2023-01-09T21:31:46.223Z,100209.50
2023-01-09T21:34:17.300Z,100213.09
2023-01-09T21:36:48.611Z,100230.97
2023-01-09T21:39:17.126Z,100229.13
2023-01-09T21:42:02.511Z,100227.25
2023-01-09T21:44:49.477Z,100232.72
2023-01-09T21:47:17.354Z,100234.41
2023-01-09T21:49:46.028Z,100247.97
2023-01-09T21:52:14.729Z,100238.09
2023-01-09T21:54:43.062Z,100245.88
2023-01-09T21:57:11.182Z,100244.19
2023-01-09T21:59:40.412Z,100250.50
2023-01-09T22:02:11.073Z,100260.22
2023-01-09T22:04:40.269Z,100267.09
2023-01-09T22:07:08.177Z,100277.78
2023-01-09T22:09:36.391Z,100288.72
2023-01-09T22:12:04.358Z,100288.72
2023-01-09T22:14:32.245Z,100289.50
2023-01-09T22:17:01.532Z,100304.81
2023-01-09T22:19:29.419Z,100304.38
2023-01-09T22:21:57.338Z,100306.16
2023-01-09T22:24:25.272Z,100310.09
2023-01-09T22:26:53.152Z,100319.81
2023-01-09T22:29:21.829Z,100323.94
2023-01-09T22:31:49.771Z,100323.81
2023-01-09T22:34:19.724Z,100336.75
2023-01-09T22:36:48.347Z,100328.72
2023-01-09T22:39:17.988Z,100338.06
2023-01-09T22:41:46.015Z,100337.34
2023-01-09T22:44:14.172Z,100346.13
2023-01-09T22:46:42.091Z,100349.25
2023-01-09T22:49:12.094Z,100343.13
2023-01-09T22:51:41.686Z,100358.34
2023-01-09T22:54:09.537Z,100363.06
2023-01-09T22:56:37.479Z,100364.22
2023-01-09T22:59:05.423Z,100374.31
2023-01-09T23:01:33.283Z,100369.97
2023-01-09T23:04:01.246Z,100380.78
2023-01-09T23:06:30.429Z,100392.53
2023-01-09T23:08:59.694Z,100383.44
2023-01-09T23:11:48.625Z,100380.63
2023-01-09T23:14:17.056Z,100386.53
2023-01-09T23:16:45.056Z,100381.97
2023-01-09T23:19:15.781Z,100392.19
2023-01-09T23:21:45.019Z,100382.72
2023-01-09T23:24:15.637Z,100383.06
2023-01-09T23:26:44.726Z,100390.53
2023-01-09T23:29:13.475Z,100388.94
2023-01-09T23:31:41.748Z,100391.88
2023-01-09T23:34:09.791Z,100398.44
2023-01-09T23:36:37.803Z,100407.47
2023-01-09T23:39:09.004Z,100413.88
2023-01-09T23:41:56.205Z,100411.50
2023-01-09T23:44:24.083Z,100419.31
2023-01-09T23:46:52.089Z,100425.88
2023-01-09T23:49:20.075Z,100427.63
2023-01-09T23:51:47.940Z,100430.66
2023-01-09T23:54:17.075Z,100439.38
2023-01-09T23:56:46.372Z,100442.13
2023-01-09T23:59:17.493Z,100459.69
